createdAt,value
2022-07-25T00:01:57.064Z,22.18
2022-07-25T00:04:25.724Z,22.13
2022-07-25T00:06:53.363Z,22.10
2022-07-25T00:09:20.820Z,22.06
2022-07-25T00:11:48.365Z,22.03
2022-07-25T00:14:15.886Z,22.01
2022-07-25T00:16:43.371Z,22.00
2022-07-25T00:19:11.809Z,21.94
2022-07-25T00:21:39.307Z,21.96
2022-07-25T00:24:07.355Z,21.93
2022-07-25T00:26:39.762Z,21.91
2022-07-25T00:29:07.876Z,21.87
2022-07-25T00:31:35.471Z,21.83
2022-07-25T00:34:04.153Z,21.79
2022-07-25T00:36:31.867Z,21.77
2022-07-25T00:38:59.377Z,21.72
2022-07-25T00:41:27.045Z,21.67
2022-07-25T00:43:54.605Z,21.65
2022-07-25T00:46:22.203Z,21.62
2022-07-25T00:48:51.521Z,21.58
2022-07-25T00:51:19.461Z,21.54
2022-07-25T00:53:47.093Z,21.52
2022-07-25T00:56:14.693Z,21.51
2022-07-25T00:58:42.178Z,21.46
2022-07-25T01:01:09.737Z,21.50
2022-07-25T01:03:37.317Z,21.51
2022-07-25T01:06:04.998Z,21.58
2022-07-25T01:08:33.418Z,21.62
2022-07-25T01:11:00.929Z,21.62
2022-07-25T01:13:28.409Z,21.64
2022-07-25T01:15:55.977Z,21.61
2022-07-25T01:18:23.470Z,21.60
2022-07-25T01:20:51.052Z,21.57
2022-07-25T01:23:18.603Z,21.56
2022-07-25T01:25:46.088Z,21.53
2022-07-25T01:28:13.679Z,21.45
2022-07-25T01:30:41.387Z,21.40
2022-07-25T01:33:08.923Z,21.30
2022-07-25T01:35:41.517Z,21.26
2022-07-25T01:38:10.955Z,21.21
2022-07-25T01:40:38.460Z,21.13
2022-07-25T01:43:06.339Z,21.13
2022-07-25T01:45:34.558Z,21.10
2022-07-25T01:48:02.065Z,21.08
2022-07-25T01:50:29.637Z,21.09
2022-07-25T01:52:57.528Z,21.03
2022-07-25T01:55:25.078Z,20.83
2022-07-25T01:57:53.975Z,20.95
2022-07-25T02:00:21.442Z,20.85
2022-07-25T02:02:49.052Z,20.80
2022-07-25T02:05:16.930Z,20.84
2022-07-25T02:07:44.450Z,20.88
2022-07-25T02:10:12.071Z,20.86
2022-07-25T02:12:39.598Z,20.93
2022-07-25T02:15:07.783Z,20.92
2022-07-25T02:17:35.272Z,20.89
2022-07-25T02:20:02.854Z,20.86
2022-07-25T02:22:30.354Z,20.76
2022-07-25T02:24:57.829Z,20.70
2022-07-25T02:27:25.321Z,20.67
2022-07-25T02:29:52.821Z,20.67
2022-07-25T02:32:20.317Z,20.63
2022-07-25T02:34:47.817Z,20.53
2022-07-25T02:37:15.365Z,20.43
2022-07-25T02:39:42.892Z,20.44
2022-07-25T02:42:10.450Z,20.42
2022-07-25T02:44:37.946Z,20.42
2022-07-25T02:47:05.451Z,20.43
2022-07-25T02:49:32.956Z,20.42
2022-07-25T02:52:00.394Z,20.44
2022-07-25T02:54:27.876Z,20.45
2022-07-25T02:56:55.603Z,20.47
2022-07-25T02:59:23.103Z,20.49
2022-07-25T03:01:50.760Z,20.50
2022-07-25T03:04:18.431Z,20.50
2022-07-25T03:06:47.454Z,20.49
2022-07-25T03:09:14.981Z,20.49
2022-07-25T03:11:42.503Z,20.45
2022-07-25T03:14:10.385Z,20.45
2022-07-25T03:16:38.165Z,20.43
2022-07-25T03:19:10.266Z,20.47
2022-07-25T03:21:40.279Z,20.48
2022-07-25T03:24:08.242Z,20.47
2022-07-25T03:26:36.060Z,20.50
2022-07-25T03:29:04.194Z,20.47
2022-07-25T03:31:31.712Z,20.49
2022-07-25T03:33:59.182Z,20.49
2022-07-25T03:36:26.679Z,20.49
2022-07-25T03:38:55.830Z,20.51
2022-07-25T03:41:23.542Z,20.54
2022-07-25T03:43:54.767Z,20.56
2022-07-25T03:46:22.319Z,20.52
2022-07-25T03:48:49.884Z,20.49
2022-07-25T03:51:17.484Z,20.48
2022-07-25T03:54:03.635Z,20.48
2022-07-25T03:56:43.247Z,20.50
2022-07-25T03:59:12.931Z,20.57
2022-07-25T04:01:40.715Z,20.57
2022-07-25T04:04:08.881Z,20.61
2022-07-25T04:06:37.027Z,20.65
2022-07-25T04:09:05.069Z,20.70
2022-07-25T04:11:32.771Z,20.68
2022-07-25T04:14:00.274Z,20.73
2022-07-25T04:16:28.103Z,20.77
2022-07-25T04:18:57.298Z,20.78
2022-07-25T04:21:25.887Z,20.84
2022-07-25T04:23:54.219Z,20.84
2022-07-25T04:26:21.730Z,20.92
2022-07-25T04:28:49.622Z,20.95
2022-07-25T04:31:17.609Z,20.99
2022-07-25T04:33:45.275Z,21.08
2022-07-25T04:36:13.319Z,21.16
2022-07-25T04:38:41.091Z,21.20
2022-07-25T04:41:08.671Z,21.28
2022-07-25T04:43:36.175Z,21.27
2022-07-25T04:46:04.071Z,21.35
2022-07-25T04:48:31.634Z,21.40
2022-07-25T04:50:59.221Z,21.41
2022-07-25T04:53:26.720Z,21.43
2022-07-25T04:55:54.245Z,21.45
2022-07-25T04:58:21.715Z,21.52
2022-07-25T05:00:49.374Z,21.50
2022-07-25T05:03:17.026Z,21.50
2022-07-25T05:05:44.555Z,21.54
2022-07-25T05:08:12.119Z,21.62
2022-07-25T05:10:39.699Z,21.65
2022-07-25T05:13:07.271Z,21.68
2022-07-25T05:15:34.826Z,21.69
2022-07-25T05:18:02.315Z,21.76
2022-07-25T05:20:30.214Z,21.85
2022-07-25T05:22:57.801Z,21.98
2022-07-25T05:25:25.363Z,22.01
2022-07-25T05:27:57.412Z,22.18
2022-07-25T05:30:25.278Z,22.23
2022-07-25T05:32:52.780Z,22.35
2022-07-25T05:35:20.326Z,22.47
2022-07-25T05:37:48.515Z,22.53
2022-07-25T05:40:16.032Z,22.67
2022-07-25T05:42:43.568Z,22.71
2022-07-25T05:45:11.245Z,22.74
2022-07-25T05:47:38.807Z,22.73
2022-07-25T05:50:07.784Z,22.75
2022-07-25T05:52:35.278Z,22.76
2022-07-25T05:55:02.897Z,22.67
2022-07-25T05:57:30.460Z,22.75
2022-07-25T05:59:57.961Z,22.76
2022-07-25T06:02:25.648Z,22.92
2022-07-25T06:04:53.374Z,23.07
2022-07-25T06:07:20.845Z,23.14
2022-07-25T06:09:48.342Z,23.44
2022-07-25T06:12:15.860Z,23.62
2022-07-25T06:14:43.538Z,23.65
2022-07-25T06:17:11.106Z,23.67
2022-07-25T06:19:38.756Z,23.62
2022-07-25T06:22:08.086Z,23.67
2022-07-25T06:24:36.186Z,23.67
2022-07-25T06:27:03.743Z,23.75
2022-07-25T06:29:31.241Z,23.86
2022-07-25T06:31:58.795Z,23.99
2022-07-25T06:34:28.774Z,24.11
2022-07-25T06:36:57.471Z,24.13
2022-07-25T06:39:26.047Z,24.32
2022-07-25T06:41:53.639Z,24.31
2022-07-25T06:44:21.131Z,24.24
2022-07-25T06:46:48.680Z,24.31
2022-07-25T06:49:17.843Z,24.33
2022-07-25T06:51:45.340Z,24.01
2022-07-25T06:54:13.747Z,23.95
2022-07-25T06:56:41.194Z,23.73
2022-07-25T06:59:08.683Z,23.74
2022-07-25T07:01:36.444Z,23.71
2022-07-25T07:04:05.280Z,23.58
2022-07-25T07:06:32.987Z,23.57
2022-07-25T07:09:00.525Z,23.63
2022-07-25T07:11:28.518Z,23.50
2022-07-25T07:13:56.090Z,23.60
2022-07-25T07:16:23.609Z,23.57
2022-07-25T07:18:51.149Z,23.52
2022-07-25T07:21:21.346Z,23.55
2022-07-25T07:23:49.659Z,23.47
2022-07-25T07:26:20.971Z,23.60
2022-07-25T07:28:48.560Z,23.63
2022-07-25T07:31:18.798Z,23.83
2022-07-25T07:33:46.760Z,23.79
2022-07-25T07:36:14.349Z,23.96
2022-07-25T07:38:41.982Z,23.83
2022-07-25T07:41:09.534Z,23.89
2022-07-25T07:43:37.329Z,23.91
2022-07-25T07:46:05.048Z,23.91
2022-07-25T07:48:33.915Z,24.20
2022-07-25T07:51:02.989Z,24.39
2022-07-25T07:53:44.733Z,24.34
